createdAt,value
2022-09-03T00:01:51.907Z,14.90
2022-09-03T00:04:05.180Z,14.00
2022-09-03T00:06:18.809Z,13.57
2022-09-03T00:08:34.741Z,9.00
2022-09-03T00:10:51.853Z,9.02
2022-09-03T00:13:03.924Z,8.57
2022-09-03T00:15:13.743Z,6.50
2022-09-03T00:17:23.175Z,6.78
2022-09-03T00:19:34.606Z,7.78
2022-09-03T00:21:50.651Z,7.28
2022-09-03T00:23:58.393Z,9.15
2022-09-03T00:26:12.140Z,5.07
2022-09-03T00:28:25.298Z,6.05
2022-09-03T00:30:33.350Z,8.43
2022-09-03T00:32:48.581Z,7.05
2022-09-03T00:34:59.809Z,10.73
2022-09-03T00:37:14.270Z,7.30
2022-09-03T00:39:24.237Z,6.57
2022-09-03T00:41:40.293Z,6.00
2022-09-03T00:44:14.666Z,6.65
2022-09-03T00:46:30.069Z,7.05
2022-09-03T00:48:48.227Z,6.68
2022-09-03T00:51:11.327Z,6.15
2022-09-03T00:53:30.336Z,6.82
2022-09-03T00:55:49.447Z,6.18
2022-09-03T00:58:08.708Z,7.32
2022-09-03T01:00:20.193Z,7.75
2022-09-03T01:02:36.516Z,6.32
2022-09-03T01:04:54.984Z,7.28
2022-09-03T01:07:08.623Z,6.13
2022-09-03T01:09:34.541Z,9.18
2022-09-03T01:11:48.580Z,9.82
2022-09-03T01:14:07.639Z,7.30
2022-09-03T01:16:27.018Z,7.43
2022-09-03T01:18:42.023Z,10.88
2022-09-03T01:21:06.775Z,10.18
2022-09-03T01:23:47.128Z,11.70
2022-09-03T01:26:08.543Z,6.97
2022-09-03T01:28:33.999Z,7.60
2022-09-03T01:30:48.493Z,7.25
2022-09-03T01:33:04.344Z,7.00
2022-09-03T01:35:18.123Z,8.52
2022-09-03T01:37:35.288Z,7.82
2022-09-03T01:39:50.129Z,7.22
2022-09-03T01:42:20.424Z,8.40
2022-09-03T01:44:45.635Z,7.63
2022-09-03T01:47:00.600Z,7.82
2022-09-03T01:49:16.118Z,8.05
2022-09-03T01:51:25.706Z,7.65
2022-09-03T01:53:47.996Z,6.68
2022-09-03T01:56:12.187Z,7.63
2022-09-03T01:58:25.025Z,9.65
2022-09-03T02:00:36.778Z,7.57
2022-09-03T02:02:45.575Z,7.70
2022-09-03T02:05:03.222Z,7.07
2022-09-03T02:07:10.818Z,7.55
2022-09-03T02:09:18.364Z,9.35
2022-09-03T02:11:25.845Z,7.40
2022-09-03T02:13:39.122Z,6.90
2022-09-03T02:15:48.995Z,7.00
2022-09-03T02:18:01.215Z,10.38
2022-09-03T02:20:13.159Z,9.82
2022-09-03T02:24:28.235Z,7.57
2022-09-03T02:26:35.421Z,9.55
2022-09-03T02:28:43.161Z,7.55
2022-09-03T02:30:51.993Z,6.97
2022-09-03T02:32:59.725Z,8.00
2022-09-03T02:35:06.811Z,7.63
2022-09-03T02:37:18.031Z,9.73
2022-09-03T02:39:25.032Z,8.10
2022-09-03T02:41:32.703Z,6.97
2022-09-03T02:43:45.264Z,10.43
2022-09-03T02:45:57.412Z,8.93
2022-09-03T02:48:04.909Z,8.95
2022-09-03T02:50:13.519Z,9.75
2022-09-03T02:52:20.805Z,13.65
2022-09-03T02:54:27.926Z,10.32
2022-09-03T02:56:35.009Z,9.10
2022-09-03T02:58:42.553Z,13.55
2022-09-03T03:00:50.405Z,14.30
2022-09-03T03:02:59.424Z,9.73
2022-09-03T03:05:07.321Z,10.20
2022-09-03T03:07:14.299Z,11.32
2022-09-03T03:09:21.276Z,9.02
2022-09-03T03:11:28.451Z,9.35
2022-09-03T03:13:36.968Z,10.38
2022-09-03T03:15:44.414Z,8.82
2022-09-03T03:17:51.588Z,10.23
2022-09-03T03:20:00.293Z,9.95
2022-09-03T03:22:07.432Z,9.05
2022-09-03T03:24:15.133Z,8.07
2022-09-03T03:26:25.331Z,9.13
2022-09-03T03:28:35.433Z,8.15
2022-09-03T03:30:44.031Z,8.48
2022-09-03T03:32:51.237Z,7.70
2022-09-03T03:35:00.250Z,6.85
2022-09-03T03:37:07.486Z,8.02
2022-09-03T03:39:14.728Z,6.82
2022-09-03T03:41:23.384Z,8.75
2022-09-03T03:43:30.414Z,8.77
2022-09-03T03:45:37.350Z,6.85
2022-09-03T03:47:44.366Z,7.90
2022-09-03T03:49:51.548Z,6.05
2022-09-03T03:52:00.416Z,7.28
2022-09-03T03:54:07.855Z,6.40
2022-09-03T03:56:16.780Z,5.65
2022-09-03T03:58:23.965Z,8.60
2022-09-03T04:00:31.094Z,7.18
2022-09-03T04:02:39.266Z,5.65
2022-09-03T04:04:46.989Z,5.22
2022-09-03T04:06:54.120Z,6.22
2022-09-03T04:09:03.144Z,5.68
2022-09-03T04:11:12.014Z,6.15
2022-09-03T04:13:19.196Z,4.95
2022-09-03T04:15:26.430Z,6.15
2022-09-03T04:17:33.512Z,5.75
2022-09-03T04:19:40.585Z,4.78
2022-09-03T04:21:48.023Z,6.28
2022-09-03T04:23:56.695Z,7.15
2022-09-03T04:26:05.677Z,5.20
2022-09-03T04:28:13.004Z,7.13
2022-09-03T04:30:21.103Z,6.15
2022-09-03T04:32:44.617Z,6.70
2022-09-03T04:34:51.646Z,13.15
2022-09-03T04:37:00.264Z,7.03
2022-09-03T04:39:07.240Z,4.97
2022-09-03T04:41:17.395Z,5.90
2022-09-03T04:43:24.421Z,5.82
2022-09-03T04:45:31.740Z,5.35
2022-09-03T04:47:39.447Z,4.75
2022-09-03T04:49:46.525Z,6.00
2022-09-03T04:51:54.179Z,6.90
2022-09-03T04:54:02.490Z,8.88
2022-09-03T04:56:18.824Z,5.07
2022-09-03T04:58:26.210Z,6.50
2022-09-03T05:00:34.267Z,6.28
2022-09-03T05:02:41.418Z,6.72
2022-09-03T05:04:48.471Z,5.53
2022-09-03T05:06:55.499Z,4.22
2022-09-03T05:09:03.295Z,5.57
2022-09-03T05:11:11.190Z,4.95
2022-09-03T05:13:20.012Z,5.55
2022-09-03T05:15:27.349Z,5.22
2022-09-03T05:17:37.612Z,5.07
2022-09-03T05:19:44.884Z,4.85
2022-09-03T05:21:52.271Z,4.82
2022-09-03T05:23:59.261Z,6.28
2022-09-03T05:26:10.869Z,3.97
2022-09-03T05:30:27.351Z,5.95
2022-09-03T05:32:35.859Z,3.50
2022-09-03T05:34:43.768Z,4.53
2022-09-03T05:36:51.047Z,3.88
2022-09-03T05:38:58.801Z,4.68
2022-09-03T05:41:06.842Z,4.00
2022-09-03T05:43:13.815Z,4.22
2022-09-03T05:45:23.078Z,8.27
2022-09-03T05:47:30.080Z,4.40
2022-09-03T05:49:37.156Z,5.05
2022-09-03T05:51:44.847Z,4.20
2022-09-03T05:53:52.596Z,4.68
2022-09-03T05:56:01.209Z,3.75
2022-09-03T05:58:08.557Z,4.00
2022-09-03T06:00:16.490Z,4.15
2022-09-03T06:02:25.582Z,4.85
2022-09-03T06:04:32.800Z,5.07
2022-09-03T06:06:41.721Z,4.22
2022-09-03T06:08:52.795Z,5.13
2022-09-03T06:11:02.653Z,4.72
2022-09-03T06:13:09.680Z,4.95
2022-09-03T06:15:16.799Z,5.80
2022-09-03T06:17:25.619Z,4.80
2022-09-03T06:19:32.595Z,5.10
2022-09-03T06:21:44.037Z,5.82
2022-09-03T06:23:55.051Z,5.13
2022-09-03T06:26:07.151Z,5.38
2022-09-03T06:28:14.789Z,5.78
2022-09-03T06:30:21.877Z,6.82
2022-09-03T06:32:31.099Z,6.90
2022-09-03T06:34:38.432Z,5.20
2022-09-03T06:36:45.410Z,5.45
2022-09-03T06:38:55.203Z,6.47
2022-09-03T06:41:05.299Z,6.35
2022-09-03T06:43:12.644Z,6.70
2022-09-03T06:45:19.824Z,6.93
2022-09-03T06:47:27.054Z,6.15
2022-09-03T06:49:35.715Z,5.85
2022-09-03T06:51:44.539Z,6.53
2022-09-03T06:53:52.894Z,5.55
2022-09-03T06:56:01.258Z,6.03
2022-09-03T06:58:08.333Z,5.75
2022-09-03T07:00:16.950Z,6.57
2022-09-03T07:02:24.124Z,5.35
2022-09-03T07:04:31.259Z,6.20
2022-09-03T07:06:41.514Z,6.80
2022-09-03T07:08:49.414Z,5.22
2022-09-03T07:10:56.654Z,5.40
2022-09-03T07:13:03.624Z,5.63
2022-09-03T07:15:11.632Z,5.63
2022-09-03T07:17:19.578Z,6.82
2022-09-03T07:19:26.601Z,6.55
2022-09-03T07:21:35.219Z,5.30
2022-09-03T07:23:44.705Z,5.75
2022-09-03T07:25:58.090Z,6.22
2022-09-03T07:28:06.130Z,5.90
2022-09-03T07:30:14.645Z,6.07
2022-09-03T07:32:21.832Z,6.82
2022-09-03T07:34:28.852Z,6.13
2022-09-03T07:36:39.979Z,6.32
2022-09-03T07:38:50.180Z,6.70
2022-09-03T07:41:02.742Z,6.57
2022-09-03T07:43:09.816Z,7.40
2022-09-03T07:45:16.945Z,7.07
2022-09-03T07:47:27.146Z,6.97
2022-09-03T07:49:34.336Z,7.40
2022-09-03T07:51:42.435Z,7.10
2022-09-03T07:53:51.972Z,7.43
2022-09-03T07:58:12.892Z,7.13
2022-09-03T08:00:20.417Z,7.65
2022-09-03T08:02:27.622Z,6.60
2022-09-03T08:04:35.004Z,6.32
2022-09-03T08:06:43.360Z,7.03
2022-09-03T08:08:52.433Z,6.75
2022-09-03T08:11:00.026Z,6.00
2022-09-03T08:13:07.513Z,6.30
2022-09-03T08:15:14.694Z,6.18
2022-09-03T08:17:21.722Z,5.97
2022-09-03T08:19:29.168Z,6.13
2022-09-03T08:21:36.495Z,7.47
2022-09-03T08:23:44.702Z,5.78
2022-09-03T08:26:00.942Z,6.60
2022-09-03T08:28:08.585Z,5.57
2022-09-03T08:30:15.928Z,4.90
2022-09-03T08:32:24.086Z,5.45
2022-09-03T08:34:31.464Z,6.22
2022-09-03T08:36:41.873Z,5.40
2022-09-03T08:38:51.560Z,7.65
2022-09-03T08:41:11.643Z,5.38
2022-09-03T08:43:21.644Z,5.35
2022-09-03T08:45:31.493Z,6.18
2022-09-03T08:47:44.455Z,5.95
2022-09-03T08:49:57.271Z,5.65
2022-09-03T08:52:10.361Z,6.13
2022-09-03T08:54:18.543Z,4.68
2022-09-03T08:56:31.783Z,5.53
2022-09-03T08:58:43.051Z,5.28
2022-09-03T09:01:02.417Z,5.28
2022-09-03T09:03:30.022Z,6.20
2022-09-03T09:05:47.343Z,5.40
2022-09-03T09:07:58.619Z,6.72
2022-09-03T09:10:13.845Z,7.10
2022-09-03T09:12:41.392Z,5.65
2022-09-03T09:15:00.260Z,6.25
2022-09-03T09:17:21.206Z,6.22
2022-09-03T09:19:41.958Z,6.40
2022-09-03T09:21:55.028Z,5.68
2022-09-03T09:24:07.846Z,6.38
2022-09-03T09:26:18.249Z,4.88
2022-09-03T09:28:29.124Z,5.95
2022-09-03T09:30:37.018Z,5.53
2022-09-03T09:32:44.255Z,5.75
2022-09-03T09:34:52.587Z,7.03
2022-09-03T09:37:00.555Z,6.60
2022-09-03T09:39:13.223Z,6.68
2022-09-03T09:41:23.359Z,5.13
2022-09-03T09:43:35.062Z,4.20
2022-09-03T09:45:43.726Z,6.03
2022-09-03T09:47:52.953Z,5.38
2022-09-03T09:50:01.572Z,4.75
2022-09-03T09:52:13.108Z,5.80
2022-09-03T09:54:22.597Z,6.82
2022-09-03T09:56:30.441Z,5.57
2022-09-03T09:58:40.080Z,5.68
2022-09-03T10:01:02.463Z,5.78
2022-09-03T10:03:15.538Z,4.85
2022-09-03T10:05:26.089Z,5.43
2022-09-03T10:07:34.451Z,5.53
2022-09-03T10:09:41.429Z,4.55
2022-09-03T10:11:52.707Z,4.38
2022-09-03T10:14:01.686Z,5.32
2022-09-03T10:16:16.884Z,4.18
2022-09-03T10:18:34.015Z,5.05
2022-09-03T10:20:50.922Z,4.35
2022-09-03T10:23:01.384Z,5.43
2022-09-03T10:25:09.589Z,5.97
2022-09-03T10:27:19.889Z,5.35
2022-09-03T10:29:30.603Z,7.28
2022-09-03T10:31:49.002Z,5.30
2022-09-03T10:34:02.688Z,6.28
2022-09-03T10:36:21.844Z,6.60
2022-09-03T10:38:33.377Z,7.55
2022-09-03T10:40:45.892Z,4.90
2022-09-03T10:43:03.363Z,5.43
2022-09-03T10:45:21.547Z,7.70
2022-09-03T10:47:44.910Z,4.32
2022-09-03T10:49:59.006Z,5.03
2022-09-03T10:52:12.076Z,4.95
2022-09-03T10:54:39.848Z,5.60
2022-09-03T10:56:55.107Z,4.38
2022-09-03T10:59:13.715Z,5.22
2022-09-03T11:01:31.409Z,4.60
2022-09-03T11:03:51.372Z,4.65
2022-09-03T11:06:04.950Z,5.90
2022-09-03T11:08:16.610Z,5.32
2022-09-03T11:10:30.934Z,6.25
2022-09-03T11:12:41.699Z,8.40
2022-09-03T11:14:53.905Z,7.75
2022-09-03T11:17:09.177Z,9.07
2022-09-03T11:19:20.090Z,11.43
2022-09-03T11:21:31.530Z,8.38
2022-09-03T11:25:53.308Z,9.73
2022-09-03T11:28:12.830Z,9.05
2022-09-03T11:30:27.995Z,9.45
2022-09-03T11:32:55.742Z,9.68
2022-09-03T11:35:03.354Z,9.90
2022-09-03T11:37:22.261Z,8.90
2022-09-03T11:39:39.249Z,8.85
2022-09-03T11:41:46.765Z,9.40
2022-09-03T11:43:54.352Z,9.10
2022-09-03T11:46:14.992Z,9.55
2022-09-03T11:48:40.006Z,8.95
2022-09-03T11:50:56.959Z,10.02
2022-09-03T11:53:14.127Z,9.45
2022-09-03T11:55:43.712Z,9.95
2022-09-03T11:57:51.016Z,9.93
2022-09-03T12:00:10.764Z,11.90
2022-09-03T12:02:34.633Z,10.43
2022-09-03T12:04:51.056Z,6.82
2022-09-03T12:07:14.587Z,9.32
2022-09-03T12:09:52.685Z,6.78
2022-09-03T12:12:10.976Z,8.48
2022-09-03T12:14:23.387Z,9.05
2022-09-03T12:16:50.580Z,10.23
2022-09-03T12:19:04.011Z,10.50
2022-09-03T12:21:14.116Z,9.27
2022-09-03T12:23:32.814Z,10.70
2022-09-03T12:25:46.967Z,10.23
2022-09-03T12:27:54.448Z,9.38
2022-09-03T12:30:04.705Z,9.70
2022-09-03T12:32:15.266Z,11.40
2022-09-03T12:34:24.390Z,9.00
2022-09-03T12:36:42.678Z,9.98
2022-09-03T12:39:10.890Z,10.77
2022-09-03T12:41:32.516Z,10.88
2022-09-03T12:43:42.460Z,9.73
2022-09-03T12:48:20.654Z,10.35
2022-09-03T12:50:28.742Z,7.88
2022-09-03T12:52:39.822Z,9.10
2022-09-03T12:54:51.505Z,12.70
2022-09-03T12:59:10.838Z,11.20
2022-09-03T13:01:20.974Z,12.52
2022-09-03T13:03:35.541Z,11.45
2022-09-03T13:05:48.147Z,12.27
2022-09-03T13:07:59.124Z,13.77
2022-09-03T13:10:10.301Z,13.00
2022-09-03T13:12:27.205Z,11.27
2022-09-03T13:14:48.415Z,14.02
2022-09-03T13:19:22.081Z,11.77
2022-09-03T13:21:38.227Z,11.27
2022-09-03T13:24:01.071Z,13.15
2022-09-03T13:26:21.052Z,9.40
2022-09-03T13:28:41.500Z,12.68
2022-09-03T13:30:58.665Z,11.77
2022-09-03T13:33:10.550Z,11.02
2022-09-03T13:35:26.960Z,10.65
2022-09-03T13:37:42.019Z,11.38
2022-09-03T13:39:55.450Z,8.23
2022-09-03T13:42:10.462Z,11.82
2022-09-03T13:44:23.851Z,9.55
2022-09-03T13:46:36.601Z,10.45
2022-09-03T13:49:01.141Z,9.65
2022-09-03T13:51:14.876Z,11.80
2022-09-03T13:53:28.155Z,11.43
2022-09-03T13:55:48.338Z,9.77
2022-09-03T13:58:02.090Z,10.65
2022-09-03T14:00:12.590Z,11.73
2022-09-03T14:02:30.119Z,13.65
2022-09-03T14:04:50.907Z,12.27
2022-09-03T14:07:05.156Z,14.07
2022-09-03T14:09:19.303Z,12.23
2022-09-03T14:11:33.958Z,13.45
2022-09-03T14:13:55.879Z,10.90
2022-09-03T14:16:11.174Z,10.05
2022-09-03T14:18:35.697Z,11.20
2022-09-03T14:20:48.968Z,10.88
2022-09-03T14:23:01.424Z,10.65
2022-09-03T14:25:15.615Z,8.40
2022-09-03T14:27:32.326Z,7.60
2022-09-03T14:29:40.430Z,8.18
2022-09-03T14:32:18.735Z,10.52
2022-09-03T14:34:39.948Z,7.43
2022-09-03T14:36:55.682Z,10.38
2022-09-03T14:39:19.247Z,8.43
2022-09-03T14:41:49.622Z,6.35
2022-09-03T14:44:36.738Z,7.22
2022-09-03T14:46:57.947Z,5.82
2022-09-03T14:49:29.048Z,7.13
2022-09-03T14:51:56.859Z,6.82
2022-09-03T14:54:35.427Z,6.07
2022-09-03T14:56:52.699Z,9.13
2022-09-03T14:59:22.555Z,6.72
2022-09-03T15:01:38.888Z,6.68
2022-09-03T15:04:11.579Z,5.88
2022-09-03T15:06:31.500Z,7.38
2022-09-03T15:08:55.644Z,5.32
2022-09-03T15:11:05.334Z,5.65
2022-09-03T15:13:18.249Z,6.30
2022-09-03T15:15:31.110Z,3.58
2022-09-03T15:17:58.681Z,6.32
2022-09-03T15:20:22.443Z,5.13
2022-09-03T15:22:50.033Z,4.30
2022-09-03T15:25:07.841Z,5.20
2022-09-03T15:27:27.260Z,5.15
2022-09-03T15:29:49.232Z,4.88
2022-09-03T15:32:04.915Z,4.68
2022-09-03T15:34:27.963Z,5.07
2022-09-03T15:36:42.881Z,6.13
2022-09-03T15:38:56.000Z,4.53
2022-09-03T15:41:08.656Z,5.45
2022-09-03T15:43:22.998Z,4.75
2022-09-03T15:45:39.866Z,5.45
2022-09-03T15:47:57.236Z,5.93
2022-09-03T15:50:11.946Z,6.13
2022-09-03T15:52:34.744Z,5.28
2022-09-03T15:54:49.811Z,5.05
2022-09-03T15:57:02.015Z,7.38
2022-09-03T15:59:18.508Z,4.90
2022-09-03T16:01:38.234Z,4.70
2022-09-03T16:03:53.188Z,5.80
2022-09-03T16:06:06.217Z,4.53
2022-09-03T16:08:22.899Z,3.63
2022-09-03T16:10:45.412Z,3.08
2022-09-03T16:13:03.245Z,3.97
2022-09-03T16:15:16.618Z,4.28
2022-09-03T16:17:30.717Z,3.42
2022-09-03T16:19:45.577Z,3.83
2022-09-03T16:22:01.924Z,5.05
2022-09-03T16:24:19.914Z,3.65
2022-09-03T16:26:34.725Z,3.40
2022-09-03T16:28:48.480Z,3.97
2022-09-03T16:31:08.085Z,4.05
2022-09-03T16:33:24.690Z,4.20
2022-09-03T16:35:45.540Z,4.68
2022-09-03T16:38:15.248Z,3.63
2022-09-03T16:40:29.336Z,3.22
2022-09-03T16:42:44.039Z,3.17
2022-09-03T16:45:02.757Z,4.75
2022-09-03T16:47:18.530Z,4.38
2022-09-03T16:49:46.186Z,4.03
2022-09-03T16:52:00.026Z,4.70
2022-09-03T16:54:28.311Z,3.42
2022-09-03T16:56:53.509Z,4.20
2022-09-03T16:59:09.293Z,4.70
2022-09-03T17:01:24.613Z,3.78
2022-09-03T17:04:00.417Z,3.28
2022-09-03T17:06:25.260Z,4.20
2022-09-03T17:08:43.090Z,4.35
2022-09-03T17:10:57.287Z,3.88
2022-09-03T17:13:22.086Z,4.78
2022-09-03T17:15:47.475Z,4.40
2022-09-03T17:18:20.373Z,3.55
2022-09-03T17:20:41.540Z,3.38
2022-09-03T17:23:01.107Z,4.63
2022-09-03T17:25:11.312Z,4.20
2022-09-03T17:27:48.802Z,4.22
2022-09-03T17:30:12.059Z,2.97
2022-09-03T17:32:32.252Z,4.05
2022-09-03T17:34:55.252Z,4.03
2022-09-03T17:37:11.701Z,3.70
2022-09-03T17:39:52.747Z,3.28
2022-09-03T17:42:08.056Z,3.08
2022-09-03T17:44:22.704Z,4.13
2022-09-03T17:46:38.203Z,4.40
2022-09-03T17:48:54.219Z,4.22
2022-09-03T17:51:07.744Z,3.38
2022-09-03T17:53:27.169Z,4.57
2022-09-03T17:55:39.576Z,4.00
2022-09-03T17:57:51.413Z,3.60
2022-09-03T18:00:05.042Z,4.93
2022-09-03T18:02:33.117Z,3.88
2022-09-03T18:04:49.629Z,3.58
2022-09-03T18:07:03.712Z,3.92
2022-09-03T18:09:14.781Z,5.43
2022-09-03T18:11:30.926Z,4.85
2022-09-03T18:13:52.082Z,4.93
2022-09-03T18:16:08.836Z,5.30
2022-09-03T18:18:23.144Z,4.47
2022-09-03T18:21:03.176Z,4.88
2022-09-03T18:23:40.990Z,6.40
2022-09-03T18:26:07.895Z,4.88
2022-09-03T18:28:35.703Z,4.82
2022-09-03T18:30:58.982Z,6.25
2022-09-03T18:33:24.332Z,4.80
2022-09-03T18:35:51.004Z,4.13
2022-09-03T18:38:15.140Z,5.50
2022-09-03T18:40:42.544Z,5.70
2022-09-03T18:43:14.857Z,4.75
2022-09-03T18:48:42.260Z,5.15
2022-09-03T18:51:11.433Z,4.93
2022-09-03T18:53:55.323Z,6.47
2022-09-03T18:56:28.726Z,5.05
2022-09-03T18:59:02.223Z,4.85
2022-09-03T19:01:31.773Z,4.70
2022-09-03T19:04:09.167Z,5.50
2022-09-03T19:06:46.195Z,5.78
2022-09-03T19:09:17.094Z,6.38
2022-09-03T19:11:50.206Z,5.07
2022-09-03T19:14:24.028Z,5.75
2022-09-03T19:17:02.803Z,5.68
2022-09-03T19:19:47.310Z,5.45
2022-09-03T19:22:15.787Z,5.03
2022-09-03T19:24:43.348Z,5.57
2022-09-03T19:27:45.998Z,5.15
2022-09-03T19:30:20.357Z,5.57
2022-09-03T19:32:50.221Z,5.07
2022-09-03T19:35:29.190Z,6.22
2022-09-03T19:37:59.927Z,6.82
2022-09-03T19:40:50.212Z,4.60
2022-09-03T19:43:23.658Z,5.68
2022-09-03T19:46:04.754Z,8.00
2022-09-03T19:48:39.107Z,4.68
2022-09-03T19:51:15.063Z,6.00
2022-09-03T19:53:39.404Z,5.47
2022-09-03T19:56:07.745Z,6.78
2022-09-03T19:58:43.601Z,6.32
2022-09-03T20:01:08.983Z,5.82
2022-09-03T20:03:34.501Z,6.45
2022-09-03T20:05:58.421Z,7.25
2022-09-03T20:08:24.087Z,5.70
2022-09-03T20:10:30.246Z,5.95
2022-09-03T20:12:42.093Z,5.57
2022-09-03T20:14:49.013Z,6.68
2022-09-03T20:17:11.607Z,5.30
2022-09-03T20:19:27.131Z,6.28
2022-09-03T20:21:42.101Z,5.05
2022-09-03T20:24:03.216Z,5.85
2022-09-03T20:26:22.880Z,6.07
2022-09-03T20:28:54.122Z,5.30
2022-09-03T20:31:06.194Z,5.85
2022-09-03T20:33:47.667Z,5.35
2022-09-03T20:36:06.049Z,4.80
2022-09-03T20:38:34.277Z,4.68
2022-09-03T20:40:49.963Z,6.10
2022-09-03T20:43:40.730Z,4.93
2022-09-03T20:46:04.024Z,6.05
2022-09-03T20:48:22.947Z,5.60
2022-09-03T20:50:44.810Z,5.15
2022-09-03T20:53:05.861Z,4.60
2022-09-03T20:55:20.107Z,6.22
2022-09-03T20:57:41.416Z,7.20
2022-09-03T21:00:04.934Z,4.63
2022-09-03T21:02:20.234Z,4.63
2022-09-03T21:04:43.614Z,5.63
2022-09-03T21:06:59.704Z,4.40
2022-09-03T21:09:27.172Z,5.07
2022-09-03T21:11:43.306Z,5.45
2022-09-03T21:13:58.119Z,4.72
2022-09-03T21:16:24.515Z,5.00
2022-09-03T21:18:40.201Z,5.20
2022-09-03T21:20:53.556Z,6.45
2022-09-03T21:23:13.315Z,5.03
2022-09-03T21:25:26.967Z,6.00
2022-09-03T21:27:38.809Z,5.00
2022-09-03T21:29:50.648Z,8.18
2022-09-03T21:32:06.224Z,5.60
2022-09-03T21:34:20.639Z,6.82
2022-09-03T21:36:33.085Z,6.53
2022-09-03T21:38:42.160Z,5.55
2022-09-03T21:40:54.616Z,6.47
2022-09-03T21:43:11.832Z,9.43
2022-09-03T21:45:28.791Z,9.23
2022-09-03T21:47:41.144Z,8.38
2022-09-03T21:50:14.372Z,6.47
2022-09-03T21:52:29.761Z,6.57
2022-09-03T21:54:37.925Z,7.40
2022-09-03T21:57:01.792Z,8.98
2022-09-03T21:59:11.119Z,8.60
2022-09-03T22:01:27.346Z,5.95
2022-09-03T22:03:34.300Z,5.05
2022-09-03T22:05:58.634Z,6.35
2022-09-03T22:08:15.533Z,5.50
2022-09-03T22:10:28.503Z,4.97
2022-09-03T22:12:45.112Z,6.43
2022-09-03T22:14:56.749Z,12.00
2022-09-03T22:17:12.265Z,6.57
2022-09-03T22:19:19.967Z,7.30
2022-09-03T22:21:35.128Z,6.13
2022-09-03T22:23:56.610Z,8.32
2022-09-03T22:26:09.155Z,6.63
2022-09-03T22:28:25.599Z,7.45
2022-09-03T22:30:39.264Z,9.80
2022-09-03T22:33:03.319Z,6.93
2022-09-03T22:35:29.901Z,8.07
2022-09-03T22:37:53.259Z,7.90
2022-09-03T22:40:16.108Z,8.57
2022-09-03T22:42:51.398Z,8.65
2022-09-03T22:45:16.040Z,7.63
2022-09-03T22:47:33.920Z,8.63
2022-09-03T22:49:53.199Z,8.68
2022-09-03T22:52:12.566Z,8.90
2022-09-03T22:54:34.331Z,9.57
2022-09-03T22:58:56.887Z,8.73
2022-09-03T23:01:13.974Z,11.27
2022-09-03T23:03:27.609Z,10.25
2022-09-03T23:05:43.108Z,8.85
2022-09-03T23:07:57.308Z,9.55
2022-09-03T23:10:08.898Z,9.98
2022-09-03T23:12:21.754Z,11.57
2022-09-03T23:14:32.723Z,11.45
2022-09-03T23:16:43.996Z,10.43
2022-09-03T23:18:52.473Z,13.13
2022-09-03T23:21:09.016Z,11.60
2022-09-03T23:23:21.321Z,11.18
2022-09-03T23:25:33.269Z,10.82
2022-09-03T23:27:45.207Z,10.43
2022-09-03T23:29:56.325Z,13.73
2022-09-03T23:32:06.361Z,12.40
2022-09-03T23:34:14.631Z,12.77
2022-09-03T23:36:57.832Z,10.38
2022-09-03T23:39:06.579Z,10.02
2022-09-03T23:41:21.854Z,9.48
2022-09-03T23:43:50.642Z,12.40
2022-09-03T23:46:06.281Z,13.80
2022-09-03T23:48:26.284Z,11.43
2022-09-03T23:50:41.164Z,12.55
2022-09-03T23:53:20.504Z,11.20
2022-09-03T23:55:38.427Z,11.38
2022-09-03T23:57:53.037Z,10.18
